createdAt,value
2017-09-29T17:45:00.326Z,6.27
2017-09-29T17:49:50.862Z,5.70
2017-09-29T17:52:18.280Z,9.20
2017-09-29T17:54:45.665Z,8.60
2017-09-29T17:57:13.098Z,8.93
2017-09-29T17:59:40.651Z,8.40
2017-09-29T18:02:08.021Z,8.47
2017-09-29T18:04:35.384Z,8.60
2017-09-29T18:07:02.775Z,6.60
2017-09-29T18:09:30.199Z,10.17
2017-09-29T18:11:57.553Z,9.07
2017-09-29T18:14:24.923Z,7.60
2017-09-29T18:16:52.294Z,6.40
2017-09-29T18:19:19.716Z,7.07
2017-09-29T18:21:47.377Z,5.67
2017-09-29T18:24:15.142Z,6.07
2017-09-29T18:26:42.781Z,6.67
2017-09-29T18:29:10.406Z,5.77
2017-09-29T18:31:38.232Z,5.83
2017-09-29T18:34:05.890Z,5.83
2017-09-29T18:36:33.762Z,5.73
2017-09-29T18:39:01.552Z,6.37
2017-09-29T18:41:29.401Z,6.10
2017-09-29T18:44:02.786Z,6.10
2017-09-29T18:46:30.546Z,5.77
2017-09-29T18:48:58.312Z,5.80
2017-09-29T18:51:25.895Z,6.03
2017-09-29T18:53:53.626Z,5.93
2017-09-29T18:56:21.401Z,6.77
2017-09-29T18:58:49.146Z,6.40
2017-09-29T19:01:16.828Z,5.43
2017-09-29T19:03:44.687Z,6.00
2017-09-29T19:06:52.804Z,6.17
2017-09-29T19:09:20.209Z,5.93
2017-09-29T19:11:47.599Z,6.30
2017-09-29T19:14:14.982Z,5.43
2017-09-29T19:16:42.356Z,5.97
2017-09-29T19:19:09.723Z,5.93
2017-09-29T19:21:37.113Z,5.87
2017-09-29T19:24:04.470Z,5.87
2017-09-29T19:26:31.887Z,6.27
2017-09-29T19:28:59.253Z,5.67
2017-09-29T19:31:26.746Z,5.80
2017-09-29T19:33:54.137Z,5.00
2017-09-29T19:36:21.502Z,5.60
2017-09-29T19:38:49.008Z,5.53
2017-09-29T19:41:16.425Z,5.90
2017-09-29T19:43:43.789Z,5.83
2017-09-29T19:46:11.183Z,5.90
2017-09-29T19:48:38.536Z,5.73
2017-09-29T19:51:05.931Z,5.77
2017-09-29T19:53:33.302Z,6.07
2017-09-29T19:56:00.694Z,6.10
2017-09-29T19:58:28.091Z,5.80
2017-09-29T20:00:55.440Z,6.10
2017-09-29T20:03:22.833Z,6.07
2017-09-29T20:05:50.233Z,6.03
2017-09-29T20:08:17.629Z,5.57
2017-09-29T20:10:45.033Z,5.03
2017-09-29T20:13:12.416Z,5.30
2017-09-29T20:15:39.770Z,5.90
2017-09-29T20:18:07.155Z,5.40
2017-09-29T20:20:34.538Z,6.17
2017-09-29T20:23:01.923Z,5.57
2017-09-29T20:25:29.288Z,6.10
2017-09-29T20:27:56.631Z,5.80
2017-09-29T20:30:24.032Z,5.37
2017-09-29T20:32:51.363Z,6.17
2017-09-29T20:35:18.911Z,6.30
2017-09-29T20:37:46.292Z,5.80
2017-09-29T20:40:13.649Z,5.60
2017-09-29T20:42:41.084Z,6.07
2017-09-29T20:45:08.465Z,5.50
2017-09-29T20:47:35.888Z,5.63
2017-09-29T20:50:03.258Z,5.70
2017-09-29T20:52:30.626Z,5.70
2017-09-29T20:54:57.988Z,6.00
2017-09-29T20:57:25.360Z,5.50
2017-09-29T20:59:52.732Z,5.03
2017-09-29T21:02:20.115Z,5.83
2017-09-29T21:04:47.527Z,5.20
2017-09-29T21:07:14.937Z,5.00
2017-09-29T21:09:42.453Z,6.40
2017-09-29T21:12:09.834Z,5.70
2017-09-29T21:14:37.704Z,5.60
2017-09-29T21:17:05.117Z,5.10
2017-09-29T21:19:32.459Z,5.47
2017-09-29T21:21:59.858Z,4.57
2017-09-29T21:24:27.182Z,5.53
2017-09-29T21:26:54.646Z,5.53
2017-09-29T21:29:22.000Z,5.10
2017-09-29T21:31:49.389Z,4.70
2017-09-29T21:34:16.920Z,5.93
2017-09-29T21:36:44.262Z,4.80
2017-09-29T21:39:11.619Z,5.23
2017-09-29T21:41:39.001Z,4.83
2017-09-29T21:44:06.374Z,4.90
2017-09-29T21:46:33.744Z,5.57
2017-09-29T21:49:01.105Z,5.53
2017-09-29T21:51:28.454Z,4.97
2017-09-29T21:53:55.810Z,4.93
2017-09-29T21:56:23.184Z,5.53
2017-09-29T21:58:50.568Z,5.27
2017-09-29T22:01:17.991Z,5.27
2017-09-29T22:03:45.345Z,5.50
2017-09-29T22:06:12.755Z,6.20
2017-09-29T22:08:40.111Z,5.87
2017-09-29T22:11:07.480Z,5.37
2017-09-29T22:13:34.864Z,5.43
2017-09-29T22:16:02.257Z,5.50
2017-09-29T22:18:29.601Z,6.00
2017-09-29T22:20:56.988Z,5.20
2017-09-29T22:23:24.362Z,5.10
2017-09-29T22:25:51.737Z,5.63
2017-09-29T22:28:19.082Z,5.10
2017-09-29T22:30:46.444Z,5.10
2017-09-29T22:33:13.794Z,5.07
2017-09-29T22:35:41.188Z,5.20
2017-09-29T22:38:08.536Z,5.33
2017-09-29T22:40:35.901Z,5.90
2017-09-29T22:43:03.285Z,5.40
2017-09-29T22:45:30.576Z,5.00
2017-09-29T22:47:57.918Z,5.10
2017-09-29T22:50:25.285Z,5.00
2017-09-29T22:52:52.751Z,5.13
2017-09-29T22:55:20.108Z,5.27
2017-09-29T22:57:47.460Z,5.40
2017-09-29T23:00:14.844Z,6.17
2017-09-29T23:02:42.252Z,5.13
2017-09-29T23:05:09.629Z,5.53
2017-09-29T23:07:36.980Z,5.37
2017-09-29T23:10:04.320Z,5.40
2017-09-29T23:12:31.691Z,5.20
2017-09-29T23:14:59.059Z,5.20
2017-09-29T23:17:26.407Z,4.80
2017-09-29T23:19:53.751Z,4.67
2017-09-29T23:22:21.112Z,5.07
2017-09-29T23:24:48.506Z,4.50
2017-09-29T23:27:15.847Z,4.60
2017-09-29T23:29:43.180Z,4.90
2017-09-29T23:32:10.576Z,5.23
2017-09-29T23:34:37.926Z,5.00
2017-09-29T23:37:05.258Z,4.93
2017-09-29T23:39:32.619Z,4.70
2017-09-29T23:41:59.967Z,5.40
2017-09-29T23:44:27.309Z,4.70
2017-09-29T23:46:54.676Z,4.77
2017-09-29T23:49:22.007Z,5.00
2017-09-29T23:51:49.355Z,5.00
2017-09-29T23:54:16.680Z,5.50
2017-09-29T23:56:44.035Z,4.93
2017-09-29T23:59:11.512Z,4.97
